createdAt,value
2022-10-05T19:13:41.543Z,5.53
2022-10-05T19:17:01.342Z,5.70
2022-10-05T19:20:19.147Z,5.57
2022-10-05T19:23:44.658Z,5.87
2022-10-05T19:27:02.346Z,5.73
2022-10-05T19:30:19.627Z,5.90
2022-10-05T19:33:36.875Z,5.73
2022-10-05T19:36:52.734Z,5.53
2022-10-05T19:40:01.708Z,4.90
2022-10-05T19:43:22.274Z,5.50
2022-10-05T19:46:45.256Z,5.60
2022-10-05T19:49:58.179Z,5.73
2022-10-05T19:53:08.189Z,5.37
2022-10-05T19:56:20.242Z,6.37
2022-10-05T19:59:27.628Z,5.80
2022-10-05T20:02:37.571Z,5.20
2022-10-05T20:05:45.074Z,5.53
2022-10-05T20:08:51.479Z,5.30
2022-10-05T20:11:55.484Z,5.53
2022-10-05T20:15:27.265Z,5.63
2022-10-05T20:19:07.667Z,5.60
2022-10-05T20:22:27.695Z,5.20
2022-10-05T20:25:32.423Z,5.50
2022-10-05T20:28:36.139Z,5.57
2022-10-05T20:31:39.817Z,5.30
2022-10-05T20:34:46.671Z,5.23
2022-10-05T20:37:51.017Z,4.97
2022-10-05T20:40:54.664Z,4.80
2022-10-05T20:43:58.324Z,4.97
2022-10-05T20:47:02.109Z,5.20
2022-10-05T20:50:10.139Z,5.27
2022-10-05T20:53:13.857Z,4.80
2022-10-05T20:56:19.872Z,4.97
2022-10-05T20:59:24.558Z,4.57
2022-10-05T21:02:28.913Z,4.90
2022-10-05T21:05:34.632Z,5.30
2022-10-05T21:08:38.368Z,4.90
2022-10-05T21:11:42.191Z,4.90
2022-10-05T21:14:46.399Z,5.27
2022-10-05T21:17:50.813Z,4.70
2022-10-05T21:20:59.857Z,4.70
2022-10-05T21:24:06.570Z,4.77
2022-10-05T21:27:10.734Z,5.20
2022-10-05T21:30:14.605Z,4.73
